Time;durP1;ratioP1;P1;durP2;ratioP2;P2;SDS_P1;SDS_P2;PMS_P1;PMS_P2;Temp;Humidity;BMP_temperature;BMP_pressure;BME280_temperature;BME280_humidity;BME280_pressure;Samples;Min_cycle;Max_cycle;Signal;HPM_P1;HPM_P2
2021/07/28 00:01:49;;;;;;;7.53;6.93;;;22.60;1.00;;;;;;5087361;27;20481;-75
2021/07/28 00:04:15;;;;;;;8.20;7.43;;;22.60;1.00;;;;;;5084031;27;20478;-76
2021/07/28 00:06:43;;;;;;;7.77;6.97;;;22.60;1.00;;;;;;5086601;27;20465;-76
2021/07/28 00:09:10;;;;;;;7.30;6.60;;;22.60;1.00;;;;;;5084627;27;20553;-76
2021/07/28 00:11:39;;;;;;;7.43;6.70;;;22.60;1.00;;;;;;5078697;27;20619;-75
2021/07/28 00:14:06;;;;;;;7.50;6.70;;;22.60;1.00;;;;;;5081036;27;20453;-76
2021/07/28 00:16:32;;;;;;;6.97;6.37;;;22.50;1.00;;;;;;5085500;27;20457;-76
2021/07/28 00:19:05;;;;;;;8.33;6.70;;;22.50;1.00;;;;;;5085861;27;20447;-76
2021/07/28 00:24:16;;;;;;;7.67;6.87;;;22.40;1.00;;;;;;5082187;28;22661;-76
2021/07/28 00:26:44;;;;;;;8.00;7.20;;;22.30;1.00;;;;;;5083685;28;20438;-76
2021/07/28 00:29:10;;;;;;;7.03;6.43;;;22.30;1.00;;;;;;5085849;27;20473;-75
2021/07/28 00:31:37;;;;;;;7.60;6.90;;;22.20;1.00;;;;;;5087151;27;20486;-75
2021/07/28 00:34:03;;;;;;;7.60;6.80;;;22.20;1.00;;;;;;5085191;27;20454;-75
2021/07/28 00:36:30;;;;;;;7.87;7.00;;;22.20;1.00;;;;;;5081686;27;21376;-75
2021/07/28 00:38:57;;;;;;;7.67;6.97;;;22.10;1.00;;;;;;5083244;27;20454;-76
2021/07/28 00:41:23;;;;;;;7.10;6.40;;;22.00;1.00;;;;;;5087693;27;20953;-75
2021/07/28 00:43:51;;;;;;;7.13;6.43;;;21.90;1.00;;;;;;5083242;27;20449;-75
2021/07/28 00:46:18;;;;;;;6.40;5.67;;;21.90;1.00;;;;;;5084446;27;20914;-76
2021/07/28 00:48:45;;;;;;;7.40;6.60;;;21.80;1.00;;;;;;5080926;27;20470;-75
2021/07/28 00:51:11;;;;;;;7.10;6.50;;;21.70;1.00;;;;;;5084858;27;20457;-75
2021/07/28 00:53:38;;;;;;;7.23;6.60;;;21.60;1.00;;;;;;5083698;28;20492;-75
2021/07/28 00:56:06;;;;;;;8.03;7.23;;;21.50;1.00;;;;;;5085118;27;20475;-76
2021/07/28 00:58:33;;;;;;;8.53;6.63;;;21.40;1.00;;;;;;5085386;27;20594;-75
2021/07/28 01:01:01;;;;;;;12.03;8.03;;;21.40;1.00;;;;;;5087798;27;20875;-76
2021/07/28 01:03:28;;;;;;;7.03;6.33;;;21.30;1.00;;;;;;5084932;27;20519;-76
2021/07/28 01:05:57;;;;;;;7.50;6.90;;;21.20;1.00;;;;;;5084984;27;20440;-76
2021/07/28 01:08:24;;;;;;;9.13;7.33;;;21.10;1.00;;;;;;5092464;27;20885;-77
2021/07/28 01:10:51;;;;;;;7.83;6.40;;;21.10;1.00;;;;;;5083186;27;20467;-76
2021/07/28 01:13:26;;;;;;;8.30;7.50;;;21.00;1.00;;;;;;5093790;27;20425;-76
2021/07/28 01:15:55;;;;;;;8.10;6.73;;;20.90;1.00;;;;;;5096143;28;20413;-76
2021/07/28 01:18:23;;;;;;;8.40;7.60;;;20.80;1.00;;;;;;5097595;27;20452;-75
2021/07/28 01:20:50;;;;;;;8.90;7.17;;;20.80;1.00;;;;;;5104712;27;20424;-75
2021/07/28 01:23:22;;;;;;;8.77;7.87;;;20.70;1.00;;;;;;5096953;27;20438;-76
2021/07/28 01:25:50;;;;;;;8.30;7.13;;;20.70;1.00;;;;;;5085613;27;20445;-76
2021/07/28 01:28:17;;;;;;;7.80;7.10;;;20.70;1.00;;;;;;5082259;27;20440;-76
2021/07/28 01:30:44;;;;;;;8.40;7.70;;;20.70;1.00;;;;;;5086906;27;20813;-76
2021/07/28 01:33:11;;;;;;;8.00;7.30;;;20.60;1.00;;;;;;5083566;28;20450;-76
2021/07/28 01:35:39;;;;;;;7.73;7.03;;;20.60;1.00;;;;;;5082868;27;20451;-76
2021/07/28 01:38:06;;;;;;;7.57;6.87;;;20.50;1.00;;;;;;5087340;27;20452;-77
2021/07/28 01:40:38;;;;;;;9.50;7.40;;;20.50;1.00;;;;;;5083434;27;20555;-76
2021/07/28 01:43:13;;;;;;;7.87;7.07;;;20.50;1.00;;;;;;5086910;27;20441;-76
2021/07/28 01:45:40;;;;;;;8.27;7.57;;;20.50;1.00;;;;;;5083851;27;20462;-76
2021/07/28 01:48:07;;;;;;;8.47;7.37;;;20.40;1.00;;;;;;5086072;27;20467;-76
2021/07/28 01:50:34;;;;;;;9.30;8.50;;;20.40;1.00;;;;;;5083256;27;20501;-75
2021/07/28 01:53:02;;;;;;;7.80;7.10;;;20.40;1.00;;;;;;5085303;27;20463;-76
2021/07/28 01:55:29;;;;;;;8.53;7.73;;;20.40;1.00;;;;;;5083397;28;20452;-76
2021/07/28 01:57:58;;;;;;;8.73;7.73;;;20.30;1.00;;;;;;5082992;28;21505;-75
2021/07/28 02:00:24;;;;;;;8.43;7.50;;;20.30;1.00;;;;;;5082924;27;20477;-76
2021/07/28 02:02:52;;;;;;;7.70;7.00;;;20.30;1.00;;;;;;5082258;27;20448;-75
2021/07/28 02:05:19;;;;;;;7.43;6.73;;;20.30;1.00;;;;;;5083280;27;20532;-76
2021/07/28 02:07:45;;;;;;;8.00;7.30;;;20.20;1.00;;;;;;5084985;28;20455;-76
2021/07/28 02:10:13;;;;;;;8.50;7.47;;;20.30;1.00;;;;;;5083324;27;20463;-75
2021/07/28 02:12:39;;;;;;;8.50;7.70;;;20.30;1.00;;;;;;5084994;27;20503;-76
2021/07/28 02:15:08;;;;;;;8.97;8.03;;;20.30;1.00;;;;;;5082141;27;21944;-76
2021/07/28 02:17:35;;;;;;;7.47;6.87;;;20.30;1.00;;;;;;5081306;27;20447;-75
2021/07/28 02:20:02;;;;;;;9.07;8.20;;;20.30;1.00;;;;;;5083257;27;20428;-76
2021/07/28 02:22:28;;;;;;;7.87;7.17;;;20.30;1.00;;;;;;5082343;27;20959;-76
2021/07/28 02:24:55;;;;;;;7.93;7.23;;;20.30;1.00;;;;;;5086204;27;21041;-76
2021/07/28 02:27:22;;;;;;;7.60;6.90;;;20.30;1.00;;;;;;5086585;27;20447;-75
2021/07/28 02:29:49;;;;;;;7.80;7.20;;;20.30;1.00;;;;;;5084208;28;20465;-75
2021/07/28 02:32:17;;;;;;;7.70;7.10;;;20.20;1.00;;;;;;5103342;22;20431;-74
2021/07/28 02:34:44;;;;;;;8.90;8.00;;;20.20;1.00;;;;;;5090243;27;21176;-75
2021/07/28 02:37:10;;;;;;;9.83;8.83;;;20.20;1.00;;;;;;5086501;28;20445;-77
2021/07/28 02:39:37;;;;;;;8.37;7.53;;;20.20;1.00;;;;;;5089427;27;20467;-75
2021/07/28 02:42:04;;;;;;;9.27;8.37;;;20.20;1.00;;;;;;5083987;28;20483;-76
2021/07/28 02:44:31;;;;;;;9.30;8.40;;;20.30;1.00;;;;;;5080706;27;20902;-77
2021/07/28 02:46:58;;;;;;;9.07;8.30;;;20.30;1.00;;;;;;5090773;27;20493;-74
2021/07/28 02:49:26;;;;;;;8.60;7.70;;;20.30;1.00;;;;;;5088535;27;20916;-77
2021/07/28 02:51:53;;;;;;;8.80;7.60;;;20.20;1.00;;;;;;5088392;27;20459;-75
2021/07/28 02:54:22;;;;;;;11.20;7.47;;;20.20;1.00;;;;;;5088588;27;20443;-76
2021/07/28 02:56:48;;;;;;;9.80;8.90;;;20.20;1.00;;;;;;5090804;27;20456;-76
2021/07/28 02:59:15;;;;;;;7.77;7.07;;;20.20;1.00;;;;;;5093604;28;20459;-75
2021/07/28 03:01:41;;;;;;;8.30;7.60;;;20.30;1.00;;;;;;5088314;27;20545;-77
2021/07/28 03:04:08;;;;;;;8.37;7.57;;;20.30;1.00;;;;;;5089206;27;20849;-76
2021/07/28 03:06:36;;;;;;;9.30;8.40;;;20.40;1.00;;;;;;5086278;27;20444;-75
2021/07/28 03:09:03;;;;;;;8.33;7.57;;;20.40;1.00;;;;;;5093492;27;20470;-75
2021/07/28 03:11:30;;;;;;;8.03;7.33;;;20.50;1.00;;;;;;5090492;27;20539;-77
2021/07/28 03:13:57;;;;;;;8.17;7.43;;;20.50;1.00;;;;;;5087392;27;20559;-75
2021/07/28 03:16:24;;;;;;;8.27;7.47;;;20.50;1.00;;;;;;5087106;28;20527;-76
2021/07/28 03:18:51;;;;;;;8.50;7.80;;;20.50;1.00;;;;;;5086708;27;20506;-77
2021/07/28 03:21:17;;;;;;;8.00;7.30;;;20.60;1.00;;;;;;5088029;27;20458;-75
2021/07/28 03:23:45;;;;;;;9.77;8.30;;;20.60;1.00;;;;;;5081987;27;20482;-76
2021/07/28 03:26:12;;;;;;;8.40;7.70;;;20.60;1.00;;;;;;5087341;27;20443;-74
2021/07/28 03:28:39;;;;;;;8.77;7.97;;;20.60;1.00;;;;;;5085778;27;20463;-77
2021/07/28 03:31:05;;;;;;;8.47;7.73;;;20.60;1.00;;;;;;5086723;27;20443;-77
2021/07/28 03:33:32;;;;;;;7.57;6.90;;;20.60;1.00;;;;;;5088398;28;20596;-76
2021/07/28 03:35:59;;;;;;;7.30;6.70;;;20.60;1.00;;;;;;5091123;27;20411;-76
2021/07/28 03:38:26;;;;;;;7.70;7.07;;;20.60;1.00;;;;;;5089038;27;20454;-74
2021/07/28 03:40:54;;;;;;;8.60;7.90;;;20.50;1.00;;;;;;5090848;28;20444;-75
2021/07/28 03:43:21;;;;;;;8.53;7.83;;;20.30;1.00;;;;;;5097422;27;20420;-78
2021/07/28 03:45:48;;;;;;;7.57;6.87;;;20.20;1.00;;;;;;5101040;27;20583;-76
2021/07/28 03:48:15;;;;;;;9.43;8.50;;;20.10;1.00;;;;;;5089220;27;20497;-78
2021/07/28 03:50:41;;;;;;;9.00;7.37;;;20.00;1.00;;;;;;5091679;27;20441;-77
2021/07/28 03:53:08;;;;;;;9.73;7.83;;;19.90;1.00;;;;;;5087604;28;20550;-78
2021/07/28 03:55:36;;;;;;;9.30;8.40;;;19.90;1.00;;;;;;5087734;27;20453;-76
2021/07/28 03:58:04;;;;;;;8.90;8.10;;;19.90;1.00;;;;;;5086989;27;20438;-77
2021/07/28 04:00:31;;;;;;;7.37;6.67;;;19.90;1.00;;;;;;5087523;27;21358;-78
2021/07/28 04:02:57;;;;;;;8.93;8.23;;;19.90;1.00;;;;;;5088148;28;21274;-76
2021/07/28 04:05:24;;;;;;;7.77;7.07;;;20.00;1.00;;;;;;5088220;27;20454;-77
2021/07/28 04:07:57;;;;;;;7.43;6.83;;;20.10;1.00;;;;;;5090581;27;20547;-76
2021/07/28 04:10:24;;;;;;;8.93;7.90;;;20.20;1.00;;;;;;5087488;28;22300;-77
2021/07/28 04:12:51;;;;;;;9.00;8.10;;;20.20;1.00;;;;;;5085542;27;20448;-77
2021/07/28 04:15:20;;;;;;;9.20;8.37;;;20.30;1.00;;;;;;5085409;27;21346;-76
2021/07/28 04:17:47;;;;;;;11.03;9.10;;;20.40;1.00;;;;;;5086883;27;20508;-75
2021/07/28 04:20:15;;;;;;;11.97;9.63;;;20.50;1.00;;;;;;5090239;27;21298;-76
2021/07/28 04:22:42;;;;;;;9.90;8.93;;;20.60;1.00;;;;;;5085731;27;20467;-77
2021/07/28 04:25:10;;;;;;;10.47;9.40;;;20.50;1.00;;;;;;5095406;28;20467;-77
2021/07/28 04:27:37;;;;;;;10.23;9.33;;;20.50;1.00;;;;;;5090741;27;20455;-77
2021/07/28 04:30:05;;;;;;;11.40;9.60;;;20.40;1.00;;;;;;5086156;27;20470;-76
2021/07/28 04:32:34;;;;;;;10.77;9.70;;;20.30;1.00;;;;;;5093499;28;20483;-76
2021/07/28 04:35:00;;;;;;;9.27;8.33;;;20.30;1.00;;;;;;5084393;27;20455;-75
2021/07/28 04:37:27;;;;;;;9.03;8.10;;;20.20;1.00;;;;;;5092000;27;20527;-76
2021/07/28 04:39:55;;;;;;;9.43;8.53;;;20.30;1.00;;;;;;5086829;27;20443;-76
2021/07/28 04:42:22;;;;;;;9.87;8.93;;;20.30;1.00;;;;;;5087322;27;21011;-75
2021/07/28 04:44:48;;;;;;;9.33;8.57;;;20.30;1.00;;;;;;5091306;27;20431;-75
2021/07/28 04:47:15;;;;;;;10.70;8.43;;;20.40;1.00;;;;;;5092143;27;20456;-76
2021/07/28 04:49:43;;;;;;;9.43;8.53;;;20.40;1.00;;;;;;5094878;28;21430;-76
2021/07/28 04:52:15;;;;;;;9.20;8.30;;;20.50;1.00;;;;;;5100768;27;20479;-77
2021/07/28 04:54:41;;;;;;;9.70;7.97;;;20.50;1.00;;;;;;5094687;27;20444;-78
2021/07/28 04:57:13;;;;;;;9.40;8.50;;;20.50;1.00;;;;;;5088148;27;20448;-77
2021/07/28 04:59:40;;;;;;;9.33;8.43;;;20.60;1.00;;;;;;5092395;27;20437;-77
2021/07/28 05:02:06;;;;;;;8.53;7.83;;;20.60;1.00;;;;;;5091671;27;20450;-78
2021/07/28 05:04:33;;;;;;;8.70;8.00;;;20.60;1.00;;;;;;5090135;27;20466;-78
2021/07/28 05:07:01;;;;;;;10.20;9.13;;;20.60;1.00;;;;;;5089913;27;20463;-76
2021/07/28 05:09:27;;;;;;;9.53;8.63;;;20.70;1.00;;;;;;5089119;27;21532;-77
2021/07/28 05:11:54;;;;;;;9.50;8.60;;;20.70;1.00;;;;;;5085906;28;20460;-76
2021/07/28 05:14:24;;;;;;;9.40;8.20;;;20.80;1.00;;;;;;5085822;28;20522;-76
2021/07/28 05:16:51;;;;;;;11.00;9.97;;;20.80;1.00;;;;;;5085878;27;21027;-76
2021/07/28 05:19:17;;;;;;;12.30;9.33;;;20.80;1.00;;;;;;5091272;27;20444;-77
2021/07/28 05:21:44;;;;;;;12.00;10.30;;;20.90;1.00;;;;;;5092489;27;20459;-77
2021/07/28 05:24:12;;;;;;;12.83;11.43;;;20.90;1.00;;;;;;5093237;27;21760;-77
2021/07/28 05:26:38;;;;;;;11.27;10.10;;;20.90;1.00;;;;;;5088489;27;20469;-78
2021/07/28 05:29:05;;;;;;;10.83;9.60;;;20.90;1.00;;;;;;5089216;27;21281;-77
2021/07/28 05:31:32;;;;;;;11.07;9.97;;;21.00;1.00;;;;;;5090103;27;20527;-78
2021/07/28 05:33:58;;;;;;;10.10;9.13;;;20.90;1.00;;;;;;5096464;27;20470;-81
2021/07/28 05:36:25;;;;;;;9.20;8.20;;;20.70;1.00;;;;;;5100108;28;20460;-76
2021/07/28 05:38:52;;;;;;;10.60;8.73;;;20.50;1.00;;;;;;5094074;27;20444;-77
2021/07/28 05:41:20;;;;;;;10.20;8.40;;;20.40;1.00;;;;;;5096783;27;20467;-78
2021/07/28 05:43:47;;;;;;;9.70;8.70;;;20.30;1.00;;;;;;5090332;27;21270;-78
2021/07/28 05:46:14;;;;;;;8.87;7.97;;;20.20;1.00;;;;;;5100331;28;20481;-75
2021/07/28 05:48:40;;;;;;;11.30;10.30;;;20.10;1.00;;;;;;5104464;28;20459;-75
2021/07/28 05:51:07;;;;;;;11.73;10.07;;;20.00;1.00;;;;;;5107303;27;20451;-76
2021/07/28 05:53:34;;;;;;;9.40;8.60;;;20.10;1.00;;;;;;5102344;27;20422;-76
2021/07/28 05:56:01;;;;;;;9.07;8.23;;;20.00;1.00;;;;;;5103645;27;20454;-77
2021/07/28 05:58:29;;;;;;;9.10;8.20;;;20.10;1.00;;;;;;5096633;27;20470;-75
2021/07/28 06:00:57;;;;;;;11.93;9.60;;;20.10;1.00;;;;;;5102033;27;20472;-77
2021/07/28 06:03:24;;;;;;;10.87;9.17;;;20.20;1.00;;;;;;5101280;27;20411;-75
2021/07/28 06:05:50;;;;;;;9.27;8.33;;;20.30;1.00;;;;;;5092553;27;20460;-75
2021/07/28 06:08:17;;;;;;;8.80;7.90;;;20.30;1.00;;;;;;5097766;27;20474;-79
2021/07/28 06:10:46;;;;;;;11.40;8.47;;;20.50;1.00;;;;;;5097825;27;20535;-77
2021/07/28 06:13:13;;;;;;;9.30;8.40;;;20.80;1.00;;;;;;5088047;27;20451;-78
2021/07/28 06:15:41;;;;;;;8.70;7.83;;;20.90;1.00;;;;;;5099009;27;20460;-76
2021/07/28 06:18:07;;;;;;;10.43;8.17;;;21.00;1.00;;;;;;5097741;27;20438;-75
2021/07/28 06:20:34;;;;;;;9.93;7.20;;;21.10;1.00;;;;;;5093328;27;20470;-77
2021/07/28 06:23:01;;;;;;;9.93;7.20;;;21.10;1.00;;;;;;5091727;27;20478;-77
2021/07/28 06:25:27;;;;;;;10.50;8.80;;;21.20;1.00;;;;;;5093144;27;20450;-78
2021/07/28 06:27:54;;;;;;;12.10;8.20;;;21.20;1.00;;;;;;5102338;27;20433;-76
2021/07/28 06:30:21;;;;;;;10.07;8.70;;;21.20;1.00;;;;;;5095146;27;20455;-77
2021/07/28 06:32:49;;;;;;;13.20;9.80;;;21.20;1.00;;;;;;5096974;27;21137;-76
2021/07/28 06:35:15;;;;;;;14.10;9.70;;;21.30;1.00;;;;;;5098592;27;20440;-76
2021/07/28 06:37:42;;;;;;;10.07;8.97;;;21.30;1.00;;;;;;5107796;27;20455;-75
2021/07/28 06:40:10;;;;;;;9.53;8.53;;;21.30;1.00;;;;;;5101045;27;20471;-76
2021/07/28 06:42:36;;;;;;;9.23;8.30;;;21.40;1.00;;;;;;5111185;27;20471;-75
2021/07/28 06:45:05;;;;;;;9.37;8.40;;;21.40;1.00;;;;;;5106277;27;20535;-75
2021/07/28 06:47:33;;;;;;;11.23;9.03;;;21.50;1.00;;;;;;5105591;27;20443;-76
2021/07/28 06:50:03;;;;;;;9.60;8.80;;;21.50;1.00;;;;;;5112148;27;20427;-76
2021/07/28 06:52:30;;;;;;;9.77;8.80;;;21.60;1.00;;;;;;5101505;27;20512;-75
2021/07/28 06:54:56;;;;;;;10.43;9.43;;;21.70;1.00;;;;;;5097426;27;20456;-76
2021/07/28 06:57:23;;;;;;;12.70;9.27;;;21.70;1.00;;;;;;5108545;27;21302;-75
2021/07/28 06:59:52;;;;;;;10.13;8.77;;;21.70;1.00;;;;;;5102778;27;20451;-75
2021/07/28 07:02:19;;;;;;;10.30;9.27;;;21.60;1.00;;;;;;5096127;27;21014;-75
2021/07/28 07:04:45;;;;;;;9.60;8.60;;;21.60;1.00;;;;;;5102845;27;20527;-77
2021/07/28 07:07:13;;;;;;;10.13;9.13;;;21.70;1.00;;;;;;5103130;27;20535;-78
2021/07/28 07:09:43;;;;;;;9.93;8.53;;;21.70;1.00;;;;;;5101103;27;20469;-76
2021/07/28 07:12:10;;;;;;;9.80;8.20;;;21.80;1.00;;;;;;5100083;27;20443;-76
2021/07/28 07:14:36;;;;;;;11.53;7.90;;;21.90;1.00;;;;;;5104246;27;21733;-76
2021/07/28 07:17:04;;;;;;;12.47;10.50;;;22.00;1.00;;;;;;5097825;27;20447;-76
2021/07/28 07:19:31;;;;;;;8.77;7.93;;;22.10;1.00;;;;;;5101352;27;21383;-76
2021/07/28 07:21:57;;;;;;;7.43;6.73;;;22.10;1.00;;;;;;5096520;27;20448;-76
2021/07/28 07:24:26;;;;;;;7.90;6.40;;;22.10;1.00;;;;;;5095591;27;20553;-78
2021/07/28 07:26:53;;;;;;;10.07;7.20;;;22.10;1.00;;;;;;5103737;27;20422;-78
2021/07/28 07:29:19;;;;;;;7.40;6.70;;;22.30;1.00;;;;;;5091448;27;20455;-77
2021/07/28 07:31:46;;;;;;;7.37;6.67;;;22.50;1.00;;;;;;5086008;27;21154;-76
2021/07/28 07:34:13;;;;;;;9.13;8.17;;;22.70;1.00;;;;;;5086179;27;24174;-76
2021/07/28 07:36:40;;;;;;;7.53;6.80;;;22.90;1.00;;;;;;5088064;27;20460;-75
2021/07/28 07:39:08;;;;;;;7.63;6.93;;;23.00;1.00;;;;;;5087529;27;20533;-77
2021/07/28 07:41:36;;;;;;;9.30;7.23;;;23.20;1.00;;;;;;5100007;27;20458;-77
2021/07/28 07:44:03;;;;;;;7.63;6.93;;;23.40;1.00;;;;;;5100838;27;20481;-77
2021/07/28 07:46:30;;;;;;;7.57;6.80;;;23.40;1.00;;;;;;5097580;27;20524;-77
2021/07/28 07:48:57;;;;;;;8.20;7.40;;;23.50;1.00;;;;;;5102710;27;20447;-76
2021/07/28 07:51:23;;;;;;;8.37;7.17;;;23.50;1.00;;;;;;5091628;27;20454;-77
2021/07/28 07:53:50;;;;;;;8.90;8.10;;;23.60;1.00;;;;;;5092132;27;20544;-77
2021/07/28 07:56:17;;;;;;;8.17;7.40;;;23.50;1.00;;;;;;5100319;27;20519;-76
2021/07/28 07:58:45;;;;;;;7.70;7.00;;;23.50;1.00;;;;;;5095925;27;20492;-76
2021/07/28 08:01:12;;;;;;;7.73;6.93;;;23.30;1.00;;;;;;5093439;28;20520;-78
2021/07/28 08:03:41;;;;;;;11.03;6.80;;;23.20;1.00;;;;;;5097318;27;20459;-79
2021/07/28 08:06:08;;;;;;;7.60;6.90;;;23.10;1.00;;;;;;5094606;27;21195;-78
2021/07/28 08:08:35;;;;;;;10.50;6.60;;;23.30;1.00;;;;;;5093099;27;20448;-77
2021/07/28 08:11:07;;;;;;;7.37;6.67;;;23.60;1.00;;;;;;5091258;27;20471;-77
2021/07/28 08:13:33;;;;;;;7.90;7.13;;;24.00;1.00;;;;;;5088999;27;20502;-75
2021/07/28 08:16:02;;;;;;;7.37;6.67;;;24.40;1.00;;;;;;5092861;27;20442;-78
2021/07/28 08:18:29;;;;;;;6.90;6.30;;;24.80;1.00;;;;;;5086684;27;20442;-76
2021/07/28 08:20:55;;;;;;;7.83;7.10;;;25.10;1.00;;;;;;5094295;27;20430;-74
2021/07/28 08:23:22;;;;;;;7.20;6.60;;;25.20;1.00;;;;;;5120829;27;20435;-76
2021/07/28 08:25:49;;;;;;;6.93;6.33;;;25.40;1.00;;;;;;5101202;27;20475;-75
2021/07/28 08:28:15;;;;;;;7.47;6.87;;;25.40;1.00;;;;;;5087550;27;20493;-77
2021/07/28 08:30:42;;;;;;;6.57;5.97;;;25.40;1.00;;;;;;5087971;27;20469;-76
2021/07/28 08:33:10;;;;;;;8.20;6.40;;;25.40;1.00;;;;;;5096897;27;20586;-74
2021/07/28 08:35:37;;;;;;;6.10;5.50;;;25.40;1.00;;;;;;5085177;27;20458;-77
2021/07/28 08:38:05;;;;;;;7.17;6.20;;;25.40;1.00;;;;;;5081227;27;20440;-76
2021/07/28 08:40:32;;;;;;;6.60;5.95;;;25.30;1.00;;;;;;5078171;27;20391;-76
2021/07/28 08:43:01;;;;;;;6.60;6.00;;;25.40;1.00;;;;;;5069836;27;20526;-75
2021/07/28 08:45:27;;;;;;;7.77;6.43;;;25.60;1.00;;;;;;5073649;27;20426;-75
2021/07/28 08:47:55;;;;;;;8.20;6.80;;;25.80;1.00;;;;;;5075292;27;20446;-76
2021/07/28 08:50:27;;;;;;;6.83;6.33;;;25.90;1.00;;;;;;5072005;27;20456;-75
2021/07/28 08:52:56;;;;;;;6.87;6.10;;;26.00;1.00;;;;;;5082591;27;20483;-76
2021/07/28 08:55:23;;;;;;;7.40;6.70;;;25.90;1.00;;;;;;5140413;22;20448;-78
2021/07/28 08:57:50;;;;;;;6.80;6.20;;;26.00;1.00;;;;;;5070847;28;20964;-79
2021/07/28 09:00:17;;;;;;;5.97;5.47;;;26.00;1.00;;;;;;5083362;28;20480;-77
2021/07/28 09:02:44;;;;;;;7.10;5.93;;;26.00;1.00;;;;;;5083983;28;21504;-78
2021/07/28 09:05:11;;;;;;;6.13;5.53;;;26.00;1.00;;;;;;5083926;28;21060;-78
2021/07/28 09:07:40;;;;;;;7.20;6.50;;;26.10;1.00;;;;;;5085336;28;20454;-78
2021/07/28 09:10:11;;;;;;;7.63;6.97;;;26.30;1.00;;;;;;5079032;28;20478;-79
2021/07/28 09:12:41;;;;;;;6.60;6.03;;;26.40;1.00;;;;;;5078012;28;20460;-78
2021/07/28 09:15:09;;;;;;;6.80;6.10;;;26.40;1.00;;;;;;5073424;28;20729;-79
2021/07/28 09:17:36;;;;;;;7.40;6.33;;;26.40;1.00;;;;;;5083918;28;20492;-79
2021/07/28 09:20:05;;;;;;;6.40;5.80;;;26.50;1.00;;;;;;5067438;28;20498;-78
2021/07/28 09:22:36;;;;;;;6.20;5.70;;;26.60;1.00;;;;;;5060899;28;20459;-79
2021/07/28 09:25:10;;;;;;;6.90;6.30;;;26.80;1.00;;;;;;5066537;28;20448;-80
2021/07/28 09:27:43;;;;;;;7.60;6.90;;;26.80;1.00;;;;;;5058964;28;21439;-79
2021/07/28 09:30:11;;;;;;;6.10;5.60;;;26.60;1.00;;;;;;5065621;28;20980;-79
2021/07/28 09:33:00;;;;;;;7.53;6.90;;;26.60;1.00;;;;;;5071736;28;20444;-79
2021/07/28 09:36:09;;;;;;;7.50;6.20;;;26.80;1.00;;;;;;5060903;28;20530;-79
2021/07/28 09:38:42;;;;;;;6.10;5.53;;;26.90;1.00;;;;;;5065812;28;20691;-80
2021/07/28 09:41:24;;;;;;;5.80;5.30;;;27.30;1.00;;;;;;5067879;28;20544;-79
2021/07/28 09:43:53;;;;;;;6.20;5.70;;;27.60;1.00;;;;;;5068716;28;20460;-80
2021/07/28 09:46:34;;;;;;;6.10;5.60;;;27.70;1.00;;;;;;5059428;28;20416;-79
2021/07/28 09:49:02;;;;;;;5.53;5.03;;;28.30;1.00;;;;;;5062559;28;20592;-79
2021/07/28 09:51:33;;;;;;;5.20;4.63;;;28.80;1.00;;;;;;5077698;28;21313;-79
2021/07/28 09:54:01;;;;;;;4.03;3.73;;;29.20;1.00;;;;;;5063159;28;20474;-77
2021/07/28 09:56:40;;;;;;;4.50;4.10;;;29.60;1.00;;;;;;5047720;28;20483;-79
2021/07/28 09:59:07;;;;;;;5.10;4.60;;;29.90;1.00;;;;;;5040833;28;20473;-81
2021/07/28 10:01:36;;;;;;;4.50;3.60;;;30.00;1.00;;;;;;5042774;28;20487;-78
2021/07/28 10:04:05;;;;;;;4.83;4.43;;;30.70;1.00;;;;;;5040212;28;20461;-78
2021/07/28 10:06:41;;;;;;;5.03;4.63;;;31.00;1.00;;;;;;5046681;28;20441;-78
2021/07/28 10:09:10;;;;;;;5.33;4.83;;;31.10;1.00;;;;;;5043603;28;20658;-78
2021/07/28 10:11:39;;;;;;;4.70;4.30;;;31.40;1.00;;;;;;5043266;28;20415;-79
2021/07/28 10:14:06;;;;;;;5.00;4.50;;;31.20;1.00;;;;;;5041963;28;22834;-78
2021/07/28 10:16:33;;;;;;;4.37;3.97;;;31.00;1.00;;;;;;5041885;28;20480;-78
2021/07/28 10:19:03;;;;;;;4.73;4.23;;;30.60;1.00;;;;;;5050205;28;20546;-79
2021/07/28 10:21:32;;;;;;;6.00;5.17;;;30.40;1.00;;;;;;5051790;28;20474;-79
2021/07/28 10:24:00;;;;;;;6.60;4.63;;;30.40;1.00;;;;;;5057667;28;20461;-79
2021/07/28 10:26:27;;;;;;;5.17;4.70;;;30.30;1.00;;;;;;5052124;28;20436;-80
2021/07/28 10:28:57;;;;;;;5.03;4.63;;;30.00;1.00;;;;;;5055087;28;20547;-79
2021/07/28 10:31:25;;;;;;;5.87;5.03;;;29.90;1.00;;;;;;5056410;28;20428;-79
2021/07/28 10:33:55;;;;;;;5.70;5.10;;;29.80;1.00;;;;;;5050508;28;20475;-78
2021/07/28 10:36:24;;;;;;;5.27;4.77;;;29.40;1.00;;;;;;5049653;28;20448;-78
2021/07/28 10:38:53;;;;;;;8.60;5.97;;;29.40;1.00;;;;;;5052508;28;20438;-78
2021/07/28 10:41:48;;;;;;;5.00;4.60;;;29.40;1.00;;;;;;5050570;28;20441;-79
2021/07/28 10:44:22;;;;;;;7.00;6.40;;;29.20;1.00;;;;;;5053393;28;20418;-78
2021/07/28 10:47:35;;;;;;;6.60;5.50;;;28.90;1.00;;;;;;5051643;28;21062;-78
2021/07/28 10:50:02;;;;;;;6.17;4.90;;;29.20;1.00;;;;;;5049339;28;20454;-78
2021/07/28 10:52:37;;;;;;;5.70;5.27;;;29.40;1.00;;;;;;5063053;28;20562;-79
2021/07/28 10:55:19;;;;;;;5.73;5.23;;;29.30;1.00;;;;;;5044672;28;20479;-78
2021/07/28 10:58:24;;;;;;;5.53;4.97;;;29.10;1.00;;;;;;5040604;28;20462;-78
2021/07/28 11:00:59;;;;;;;5.90;5.40;;;29.00;1.00;;;;;;5039495;28;20600;-78
2021/07/28 11:03:30;;;;;;;5.97;5.47;;;28.90;1.00;;;;;;5040488;28;20440;-78
2021/07/28 11:06:18;;;;;;;6.13;4.90;;;29.00;1.00;;;;;;5042283;28;20792;-78
2021/07/28 11:08:46;;;;;;;7.37;5.90;;;28.90;1.00;;;;;;5044787;28;20445;-77
2021/07/28 11:11:21;;;;;;;4.60;4.20;;;29.10;1.00;;;;;;5042526;28;20590;-77
2021/07/28 11:13:47;;;;;;;5.23;4.73;;;29.20;1.00;;;;;;5040160;28;20461;-77
2021/07/28 11:16:15;;;;;;;4.70;4.30;;;29.20;1.00;;;;;;5045916;28;20433;-78
2021/07/28 11:18:44;;;;;;;6.10;5.27;;;29.10;1.00;;;;;;5047840;28;20425;-79
2021/07/28 11:21:13;;;;;;;6.93;6.33;;;28.90;1.00;;;;;;5047553;28;20449;-78
2021/07/28 11:23:47;;;;;;;6.53;5.80;;;28.90;1.00;;;;;;5052397;28;21083;-79
2021/07/28 11:26:21;;;;;;;5.17;4.67;;;29.50;1.00;;;;;;5051870;28;20517;-80
2021/07/28 11:28:48;;;;;;;6.27;4.63;;;30.60;1.00;;;;;;5060158;28;21426;-79
2021/07/28 11:31:23;;;;;;;7.03;4.60;;;31.50;1.00;;;;;;5053546;28;20438;-79
2021/07/28 11:33:51;;;;;;;6.43;4.60;;;32.10;1.00;;;;;;5057557;28;21225;-79
2021/07/28 11:36:18;;;;;;;4.67;4.27;;;32.60;1.00;;;;;;5054248;28;20495;-79
2021/07/28 11:38:46;;;;;;;4.87;4.20;;;32.80;1.00;;;;;;5052969;28;20460;-79
2021/07/28 11:41:12;;;;;;;4.23;3.83;;;33.10;1.00;;;;;;5053833;28;20456;-79
2021/07/28 11:43:40;;;;;;;3.93;3.53;;;33.30;1.00;;;;;;5051438;28;20453;-80
2021/07/28 11:46:12;;;;;;;6.67;3.53;;;33.40;1.00;;;;;;5063786;28;24749;-79
2021/07/28 11:48:44;;;;;;;5.03;4.10;;;33.30;1.00;;;;;;5052862;28;20440;-79
2021/07/28 11:51:22;;;;;;;3.83;3.43;;;33.20;1.00;;;;;;5051546;28;20448;-79
2021/07/28 11:53:50;;;;;;;4.20;3.43;;;33.10;1.00;;;;;;5054342;28;20427;-80
2021/07/28 11:56:17;;;;;;;4.53;3.67;;;32.70;1.00;;;;;;5044988;28;20443;-78
2021/07/28 11:58:45;;;;;;;4.63;4.23;;;32.10;1.00;;;;;;5053836;28;20718;-79
2021/07/28 12:01:19;;;;;;;4.23;3.53;;;31.50;1.00;;;;;;5046253;28;20454;-79
2021/07/28 12:03:51;;;;;;;6.37;5.67;;;30.80;1.00;;;;;;5049731;28;20451;-79
2021/07/28 12:06:34;;;;;;;6.70;4.90;;;30.40;1.00;;;;;;5048821;28;20466;-78
2021/07/28 12:09:09;;;;;;;4.57;4.07;;;30.10;1.00;;;;;;5051858;28;22051;-78
2021/07/28 12:11:57;;;;;;;6.43;4.40;;;29.50;1.00;;;;;;5049588;28;20461;-80
2021/07/28 12:14:33;;;;;;;4.27;3.87;;;29.50;1.00;;;;;;5049706;28;20449;-78
2021/07/28 12:17:01;;;;;;;5.00;4.10;;;29.20;1.00;;;;;;5051619;28;20462;-77
2021/07/28 12:19:31;;;;;;;4.80;4.40;;;29.10;1.00;;;;;;5051395;28;20422;-78
2021/07/28 12:22:01;;;;;;;4.30;3.90;;;29.00;1.00;;;;;;5051998;28;20429;-76
2021/07/28 12:24:39;;;;;;;4.50;4.10;;;28.90;1.00;;;;;;5064232;28;20819;-78
2021/07/28 12:27:35;;;;;;;4.30;3.60;;;29.00;1.00;;;;;;5052340;28;20439;-77
2021/07/28 12:30:08;;;;;;;4.97;4.47;;;29.10;1.00;;;;;;5060089;28;20879;-78
2021/07/28 12:32:36;;;;;;;3.30;2.93;;;29.10;1.00;;;;;;5056804;28;20516;-79
2021/07/28 12:35:07;;;;;;;4.20;3.80;;;28.90;1.00;;;;;;5054002;28;20422;-79
2021/07/28 12:37:34;;;;;;;3.93;3.53;;;28.70;1.00;;;;;;5056160;28;20454;-79
2021/07/28 12:40:02;;;;;;;3.53;3.00;;;28.60;1.00;;;;;;5060140;28;20426;-78
2021/07/28 12:42:30;;;;;;;3.63;3.27;;;28.50;1.00;;;;;;5056258;28;20452;-78
2021/07/28 12:44:57;;;;;;;3.57;3.27;;;28.40;1.00;;;;;;5054946;28;20470;-79
2021/07/28 12:47:24;;;;;;;4.97;3.23;;;28.20;1.00;;;;;;5054141;28;20442;-79
2021/07/28 12:49:51;;;;;;;3.90;3.37;;;28.10;1.00;;;;;;5055156;28;20441;-78
2021/07/28 12:52:19;;;;;;;5.17;4.40;;;28.10;1.00;;;;;;5050669;28;20413;-79
2021/07/28 12:54:46;;;;;;;4.97;3.37;;;28.30;1.00;;;;;;5050968;28;23583;-79
2021/07/28 12:57:12;;;;;;;3.47;3.00;;;28.50;1.00;;;;;;5055403;28;20922;-81
2021/07/28 12:59:39;;;;;;;3.90;3.50;;;28.90;1.00;;;;;;5058125;28;20523;-80
2021/07/28 13:02:06;;;;;;;6.50;4.10;;;29.10;1.00;;;;;;5056863;28;20446;-80
2021/07/28 13:04:34;;;;;;;4.37;3.97;;;29.60;1.00;;;;;;5049438;28;20682;-83
2021/07/28 13:07:10;;;;;;;3.40;3.10;;;30.30;1.00;;;;;;5059134;28;20474;-83